アデレード の空港の天気 - METARとTAF

アデレード空港 ( YPAD / ADL ) - オーストラリア 南オーストラリア州アデレード
飛行場実況気象(Metar)
観測時間01/23 16:00 ACDT (01/23 05:30 UTC)
風向・風速南 8m/s
視程10km以上
天気現象
なし
気温30℃
湿度29%
気圧1009hPa
METARYPAD 230530Z 17015KT CAVOK 30/10 Q1009 NOSIG
過去の天気等 Google飛行場航空写真 Wunderground天気予報

過去48時間のMETAR

飛行場予報(TAF)
発表時間: 1/23 15:34 ACDT (1/23 05:04 UTC)
予報対象時間: 23日16時 ACDT ~ 24日22時 ACDT
風向・風速南南東 6m/s
視程10km以上
なし
TAF YPAD 230504Z 2306/2412 15012KT CAVOK